Time;durP1;ratioP1;P1;durP2;ratioP2;P2;SDS_P1;SDS_P2;PMS_P1;PMS_P2;Temp;Humidity;BMP_temperature;BMP_pressure;BME280_temperature;BME280_humidity;BME280_pressure;Samples;Min_cycle;Max_cycle;Signal;HPM_P1;HPM_P2
2023/04/15 00:00:30;;;;;;;20.50;13.93;;;10.50;99.90;;;;;;10512943;28;20229;-87
2023/04/15 00:05:51;;;;;;;20.17;13.03;;;10.50;99.90;;;;;;10509927;28;20196;-87
2023/04/15 00:11:13;;;;;;;17.57;12.93;;;10.50;99.90;;;;;;10495685;28;20200;-86
2023/04/15 00:16:34;;;;;;;15.40;12.73;;;10.50;99.90;;;;;;10495450;28;20504;-86
2023/04/15 00:21:56;;;;;;;17.73;12.03;;;10.60;99.90;;;;;;10523331;28;20224;-87
2023/04/15 00:27:19;;;;;;;20.23;12.30;;;10.50;99.90;;;;;;10495402;28;20189;-86
2023/04/15 00:32:41;;;;;;;15.33;12.43;;;10.50;99.90;;;;;;10494166;28;20206;-87
2023/04/15 00:38:03;;;;;;;16.07;12.57;;;10.40;99.90;;;;;;10476992;28;20260;-86
2023/04/15 00:43:25;;;;;;;17.63;11.93;;;10.50;99.90;;;;;;10528439;28;20199;-87
2023/04/15 00:48:47;;;;;;;16.20;12.33;;;10.40;99.90;;;;;;10491094;28;20204;-86
2023/04/15 00:54:08;;;;;;;18.20;13.20;;;10.50;99.90;;;;;;10512678;28;20196;-87
2023/04/15 00:59:31;;;;;;;17.87;11.43;;;10.50;99.90;;;;;;10507645;28;20237;-88
2023/04/15 01:04:52;;;;;;;14.73;10.73;;;10.50;99.90;;;;;;10535810;28;20196;-87
2023/04/15 01:10:14;;;;;;;15.33;11.37;;;10.50;99.90;;;;;;10549305;28;20201;-85
2023/04/15 01:15:36;;;;;;;13.07;11.10;;;10.40;99.90;;;;;;10523799;28;20279;-87
2023/04/15 01:20:59;;;;;;;16.43;12.00;;;10.40;99.90;;;;;;10530819;28;20225;-87
2023/04/15 01:26:22;;;;;;;15.67;12.07;;;10.50;99.90;;;;;;10517704;28;20195;-87
2023/04/15 01:31:54;;;;;;;14.53;10.93;;;10.40;99.90;;;;;;10526890;28;20219;-87
2023/04/15 01:37:19;;;;;;;16.17;11.87;;;10.40;99.90;;;;;;10517554;28;20284;-86
2023/04/15 01:42:40;;;;;;;15.13;11.00;;;10.40;99.90;;;;;;10502962;28;20343;-88
2023/04/15 01:48:02;;;;;;;15.87;13.07;;;10.40;99.90;;;;;;10531600;28;20446;-88
2023/04/15 01:53:24;;;;;;;17.97;13.20;;;10.40;99.90;;;;;;10507392;28;20204;-87
2023/04/15 01:58:45;;;;;;;15.50;12.47;;;10.40;99.90;;;;;;10541884;28;20428;-87
2023/04/15 02:04:15;;;;;;;17.77;12.97;;;10.40;99.90;;;;;;10530803;28;20197;-86
2023/04/15 02:09:37;;;;;;;19.60;13.33;;;10.40;99.90;;;;;;10514342;28;20483;-88
2023/04/15 02:15:01;;;;;;;16.17;11.77;;;10.40;99.90;;;;;;10533491;28;20238;-87
2023/04/15 02:20:22;;;;;;;14.80;12.10;;;10.40;99.90;;;;;;10530019;28;20232;-87
2023/04/15 02:25:44;;;;;;;15.57;12.33;;;10.40;99.90;;;;;;10520456;28;20277;-87
2023/04/15 02:31:06;;;;;;;19.60;13.50;;;10.40;99.90;;;;;;10488343;28;20242;-87
2023/04/15 02:36:29;;;;;;;18.53;11.97;;;10.30;99.90;;;;;;10542135;28;20263;-88
2023/04/15 02:41:51;;;;;;;14.10;11.20;;;10.30;99.90;;;;;;10512540;28;20234;-86
2023/04/15 02:47:13;;;;;;;14.63;11.20;;;10.30;99.90;;;;;;10488041;28;20200;-87
2023/04/15 02:52:35;;;;;;;14.43;12.23;;;10.30;99.90;;;;;;10540393;28;20517;-87
2023/04/15 02:58:00;;;;;;;13.87;12.07;;;10.30;99.90;;;;;;10482961;28;20242;-87
2023/04/15 03:03:21;;;;;;;19.13;12.13;;;10.30;99.90;;;;;;10487437;28;20203;-87
2023/04/15 03:08:42;;;;;;;17.47;11.27;;;10.30;99.90;;;;;;10490113;28;20217;-87
2023/04/15 03:14:05;;;;;;;15.97;12.30;;;10.30;99.90;;;;;;10506331;28;20207;-86
2023/04/15 03:19:29;;;;;;;14.30;11.43;;;10.20;99.90;;;;;;10517514;28;20231;-88
2023/04/15 03:24:51;;;;;;;15.50;12.33;;;10.20;99.90;;;;;;10512643;28;20271;-86
2023/04/15 03:30:12;;;;;;;16.17;12.20;;;10.20;99.90;;;;;;10526743;28;20191;-86
2023/04/15 03:35:34;;;;;;;16.03;11.80;;;10.20;99.90;;;;;;10541530;28;20242;-87
2023/04/15 03:40:56;;;;;;;16.40;10.97;;;10.20;99.90;;;;;;10503876;28;20227;-86
2023/04/15 03:46:17;;;;;;;12.70;10.63;;;10.30;99.90;;;;;;10494463;28;20287;-87
2023/04/15 03:51:38;;;;;;;15.10;11.03;;;10.20;99.90;;;;;;10516702;28;20285;-86
2023/04/15 03:57:00;;;;;;;16.90;11.43;;;10.30;99.90;;;;;;10511578;28;20495;-87
2023/04/15 04:02:22;;;;;;;15.87;12.50;;;10.20;99.90;;;;;;10516307;28;20246;-87
2023/04/15 04:07:43;;;;;;;16.80;11.60;;;10.20;99.90;;;;;;10551845;28;20196;-87
2023/04/15 04:13:05;;;;;;;38.83;23.93;;;10.10;99.90;;;;;;10479736;28;20205;-87
2023/04/15 04:18:26;;;;;;;71.10;35.30;;;10.20;99.90;;;;;;10496613;28;20220;-86
2023/04/15 04:23:48;;;;;;;138.97;67.90;;;10.10;99.90;;;;;;10510314;28;20192;-87
2023/04/15 04:29:09;;;;;;;133.47;65.83;;;10.10;99.90;;;;;;10515978;28;20198;-88
2023/04/15 04:34:31;;;;;;;106.93;53.33;;;10.10;99.90;;;;;;10516493;28;20262;-87
2023/04/15 04:39:52;;;;;;;64.20;41.30;;;10.10;99.90;;;;;;10514024;28;20526;-86
2023/04/15 04:45:14;;;;;;;17.47;14.07;;;10.10;99.90;;;;;;10533914;28;20208;-86
2023/04/15 04:50:38;;;;;;;16.40;12.63;;;10.10;99.90;;;;;;10518839;28;20204;-86
2023/04/15 04:55:59;;;;;;;20.17;14.00;;;10.10;99.90;;;;;;10550120;28;20343;-87
2023/04/15 05:01:21;;;;;;;16.67;12.57;;;10.10;99.90;;;;;;10532688;28;20234;-85
2023/04/15 05:06:42;;;;;;;18.13;12.77;;;10.10;99.90;;;;;;10532558;28;20519;-88
2023/04/15 05:12:04;;;;;;;16.23;11.87;;;10.20;99.90;;;;;;10532866;28;20208;-87
2023/04/15 05:17:25;;;;;;;19.90;13.03;;;10.20;99.90;;;;;;10549398;28;20210;-87
2023/04/15 05:22:46;;;;;;;23.37;15.43;;;10.20;99.90;;;;;;10527239;28;20213;-88
2023/04/15 05:28:08;;;;;;;18.33;11.67;;;10.30;99.90;;;;;;10532023;28;20203;-88
2023/04/15 05:33:29;;;;;;;20.37;12.57;;;10.30;99.90;;;;;;10512100;28;20249;-87
2023/04/15 05:38:51;;;;;;;13.97;11.30;;;10.30;99.90;;;;;;10490731;28;20283;-87
2023/04/15 05:44:12;;;;;;;18.93;12.87;;;10.30;99.90;;;;;;10505813;28;20207;-88
2023/04/15 05:49:33;;;;;;;15.13;12.13;;;10.30;99.90;;;;;;10489688;28;20213;-87
2023/04/15 05:54:55;;;;;;;17.50;11.50;;;10.40;99.90;;;;;;10504927;28;20225;-87
2023/04/15 06:00:16;;;;;;;20.03;13.83;;;10.50;99.90;;;;;;10526269;28;20223;-87
2023/04/15 06:05:38;;;;;;;16.60;11.83;;;10.50;99.90;;;;;;10501939;28;20515;-88
2023/04/15 06:10:59;;;;;;;17.03;11.87;;;10.60;99.90;;;;;;10527900;28;20188;-87
2023/04/15 06:16:22;;;;;;;18.40;12.40;;;10.60;99.90;;;;;;10530305;28;20220;-88
2023/04/15 06:21:44;;;;;;;14.97;10.37;;;10.60;99.90;;;;;;10511649;28;20247;-86
2023/04/15 06:27:05;;;;;;;17.33;12.50;;;10.60;99.90;;;;;;10515720;28;20201;-87
2023/04/15 06:32:27;;;;;;;23.83;13.53;;;10.60;99.90;;;;;;10512957;28;20208;-87
2023/04/15 06:37:48;;;;;;;21.17;14.00;;;10.50;99.90;;;;;;10513082;28;20543;-88
2023/04/15 06:43:10;;;;;;;18.07;12.97;;;10.70;99.90;;;;;;10474055;28;20197;-87
2023/04/15 06:48:31;;;;;;;21.90;14.53;;;10.90;99.90;;;;;;10487786;28;20201;-87
2023/04/15 06:53:52;;;;;;;18.00;12.70;;;11.10;99.90;;;;;;10506368;28;20247;-88
2023/04/15 06:59:14;;;;;;;17.40;10.63;;;11.30;99.90;;;;;;10496244;28;20263;-85
2023/04/15 07:04:35;;;;;;;17.80;11.43;;;11.30;99.90;;;;;;10481994;28;20197;-88
2023/04/15 07:09:56;;;;;;;19.80;11.60;;;11.40;99.90;;;;;;10516329;28;20525;-87
2023/04/15 07:15:18;;;;;;;15.63;11.97;;;11.80;99.90;;;;;;10495298;28;20192;-86
2023/04/15 07:20:39;;;;;;;14.63;10.07;;;12.80;99.90;;;;;;10494828;28;20256;-85
2023/04/15 07:26:01;;;;;;;16.67;9.50;;;14.00;97.90;;;;;;10484327;28;20248;-86
2023/04/15 07:31:22;;;;;;;12.02;8.90;;;14.40;94.90;;;;;;10530616;28;20261;-86
2023/04/15 07:36:44;;;;;;;14.30;10.77;;;14.60;93.70;;;;;;10520363;28;20235;-88
2023/04/15 07:42:06;;;;;;;13.00;9.95;;;14.30;96.30;;;;;;10480581;28;20519;-88
2023/04/15 07:47:28;;;;;;;10.88;8.68;;;13.80;96.80;;;;;;10494188;28;20199;-86
2023/04/15 07:52:50;;;;;;;15.90;9.10;;;13.30;99.70;;;;;;10522175;28;20200;-87
2023/04/15 07:58:12;;;;;;;18.53;9.93;;;13.00;99.90;;;;;;10521459;28;20201;-87
2023/04/15 08:03:33;;;;;;;14.75;9.35;;;12.80;99.90;;;;;;10535239;28;20504;-86
2023/04/15 08:08:55;;;;;;;10.77;9.65;;;12.70;99.90;;;;;;10523762;28;20434;-88
2023/04/15 08:14:16;;;;;;;13.37;8.43;;;12.60;99.90;;;;;;10492916;28;20496;-87
2023/04/15 08:19:37;;;;;;;10.53;8.87;;;12.40;99.90;;;;;;10507179;28;20418;-87
2023/04/15 08:24:59;;;;;;;15.93;10.50;;;12.40;99.90;;;;;;10499480;28;20557;-87
2023/04/15 08:30:20;;;;;;;15.57;10.60;;;12.30;99.90;;;;;;10520288;28;20196;-87
2023/04/15 08:35:41;;;;;;;13.87;10.93;;;12.20;99.90;;;;;;10532661;28;20287;-87
2023/04/15 08:41:10;;;;;;;19.73;12.13;;;12.10;99.90;;;;;;10535665;28;20236;-86
2023/04/15 08:46:35;;;;;;;17.20;11.35;;;12.10;99.90;;;;;;10536336;28;20201;-85
2023/04/15 08:51:59;;;;;;;16.37;10.77;;;12.20;99.90;;;;;;10528484;28;20243;-86
2023/04/15 08:57:20;;;;;;;17.80;10.77;;;12.00;99.90;;;;;;10532656;28;20193;-86
2023/04/15 09:02:42;;;;;;;16.50;10.20;;;12.00;99.90;;;;;;10518540;28;20232;-86
2023/04/15 09:08:04;;;;;;;17.23;11.60;;;12.10;99.90;;;;;;10513877;28;20209;-87
2023/04/15 09:13:26;;;;;;;16.13;10.70;;;12.00;99.90;;;;;;10548947;28;20556;-86
2023/04/15 09:18:47;;;;;;;20.63;11.37;;;11.90;99.90;;;;;;10545461;28;20433;-87
2023/04/15 09:24:08;;;;;;;17.70;11.20;;;11.90;99.90;;;;;;10507424;28;20206;-86
2023/04/15 09:29:30;;;;;;;16.83;10.40;;;11.90;99.90;;;;;;10510451;28;20229;-86
2023/04/15 09:34:51;;;;;;;13.07;9.10;;;11.90;99.90;;;;;;10531162;28;20193;-86
2023/04/15 09:40:13;;;;;;;13.83;9.97;;;11.90;99.90;;;;;;10525941;28;20345;-86
2023/04/15 09:45:35;;;;;;;15.93;10.30;;;11.80;99.90;;;;;;10531356;28;20220;-87
2023/04/15 09:50:59;;;;;;;18.33;10.90;;;11.80;99.90;;;;;;10512214;28;20572;-87
2023/04/15 09:56:21;;;;;;;18.47;11.70;;;11.70;99.90;;;;;;10502805;28;20222;-87
2023/04/15 10:01:43;;;;;;;15.67;10.00;;;11.60;99.90;;;;;;10505632;28;20230;-86
2023/04/15 10:07:06;;;;;;;14.13;10.07;;;11.70;99.90;;;;;;10505039;28;20225;-87
2023/04/15 10:12:28;;;;;;;14.30;8.70;;;11.70;99.90;;;;;;10488319;28;20197;-86
2023/04/15 10:17:52;;;;;;;11.43;8.50;;;11.80;99.90;;;;;;10505221;28;20202;-87
2023/04/15 10:23:15;;;;;;;13.17;9.07;;;11.80;99.90;;;;;;10516955;28;20243;-87
2023/04/15 10:28:37;;;;;;;14.07;9.60;;;11.90;99.90;;;;;;10504597;28;20249;-86
2023/04/15 10:34:02;;;;;;;15.10;9.53;;;12.00;99.90;;;;;;10541720;28;20292;-87
2023/04/15 10:39:33;;;;;;;14.80;9.43;;;12.10;99.90;;;;;;10504286;28;20245;-86
2023/04/15 10:44:56;;;;;;;17.30;10.07;;;12.10;99.90;;;;;;10487760;28;20278;-87
2023/04/15 10:50:18;;;;;;;15.93;10.27;;;12.10;99.90;;;;;;10491172;28;20215;-87
2023/04/15 10:55:39;;;;;;;18.00;11.03;;;12.10;99.90;;;;;;10548748;28;20202;-86
2023/04/15 11:01:01;;;;;;;18.50;10.07;;;12.10;99.90;;;;;;10560134;28;20224;-88
2023/04/15 11:06:43;;;;;;;16.77;10.47;;;12.20;99.90;;;;;;10495439;28;20196;-87
2023/04/15 11:12:09;;;;;;;16.00;9.87;;;12.10;99.90;;;;;;10487111;28;20204;-87
2023/04/15 11:17:30;;;;;;;16.33;10.97;;;12.20;99.90;;;;;;10504051;28;20205;-88
2023/04/15 11:22:55;;;;;;;15.93;11.57;;;12.20;99.90;;;;;;10499997;28;20228;-88
2023/04/15 11:28:16;;;;;;;16.70;9.80;;;12.20;99.90;;;;;;10514757;28;20197;-88
2023/04/15 11:34:01;;;;;;;17.03;10.07;;;12.00;99.90;;;;;;10531129;28;20287;-86
2023/04/15 11:39:22;;;;;;;19.97;11.27;;;12.00;99.90;;;;;;10532499;28;20252;-88
2023/04/15 11:44:43;;;;;;;18.83;12.87;;;12.00;99.90;;;;;;10496795;28;20722;-87
2023/04/15 11:50:20;;;;;;;17.93;10.83;;;12.00;99.90;;;;;;10497086;28;20205;-86
2023/04/15 11:55:47;;;;;;;15.17;10.07;;;12.00;99.90;;;;;;10535207;28;20232;-87
2023/04/15 12:01:08;;;;;;;15.43;11.05;;;12.10;99.90;;;;;;10521716;28;20518;-87
2023/04/15 12:06:37;;;;;;;14.87;9.97;;;12.10;99.90;;;;;;10523551;28;20560;-87
2023/04/15 12:11:59;;;;;;;14.43;9.83;;;12.10;99.90;;;;;;10493079;28;20202;-87
2023/04/15 12:17:22;;;;;;;14.10;9.00;;;12.20;99.90;;;;;;10493334;28;20192;-87
2023/04/15 12:22:43;;;;;;;18.97;9.67;;;12.30;99.90;;;;;;10512960;28;20237;-87
2023/04/15 12:28:11;;;;;;;13.60;8.93;;;12.40;99.90;;;;;;10492656;28;20505;-87
2023/04/15 12:33:33;;;;;;;14.47;9.13;;;12.60;99.90;;;;;;10546472;28;20219;-88
2023/04/15 12:38:54;;;;;;;11.73;8.60;;;12.60;99.90;;;;;;10505546;28;20319;-87
2023/04/15 12:44:15;;;;;;;11.50;8.18;;;12.60;99.90;;;;;;10508862;28;20193;-88
2023/04/15 12:49:38;;;;;;;10.73;8.03;;;12.40;99.90;;;;;;10491772;28;20532;-87
2023/04/15 12:54:59;;;;;;;13.90;8.48;;;12.40;99.90;;;;;;10492301;28;20230;-87
2023/04/15 13:00:21;;;;;;;12.85;9.07;;;12.40;99.90;;;;;;10508467;28;20271;-86
2023/04/15 13:05:43;;;;;;;16.67;10.40;;;12.40;99.90;;;;;;10493747;28;20484;-88
2023/04/15 13:11:04;;;;;;;15.60;10.60;;;12.40;99.90;;;;;;10494895;28;20320;-87
2023/04/15 13:16:26;;;;;;;15.20;10.53;;;12.40;99.90;;;;;;10490915;28;20435;-87
2023/04/15 13:21:47;;;;;;;12.20;9.17;;;12.30;99.90;;;;;;10507688;28;20532;-85
2023/04/15 13:27:09;;;;;;;14.63;8.47;;;12.30;99.90;;;;;;10526168;28;20209;-87
2023/04/15 13:32:32;;;;;;;12.47;9.30;;;12.20;99.90;;;;;;10535884;28;20514;-87
2023/04/15 13:37:54;;;;;;;15.70;10.47;;;12.20;99.90;;;;;;10485418;28;20236;-87
2023/04/15 13:43:16;;;;;;;11.40;8.60;;;12.10;99.90;;;;;;10489732;28;20300;-87
2023/04/15 13:48:37;;;;;;;14.57;9.77;;;12.00;99.90;;;;;;10503670;28;20247;-87
2023/04/15 13:53:59;;;;;;;12.73;9.03;;;11.90;99.90;;;;;;10514549;28;20225;-87
2023/04/15 13:59:20;;;;;;;17.90;9.30;;;11.90;99.90;;;;;;10505727;28;20213;-88
2023/04/15 14:04:41;;;;;;;11.23;8.60;;;11.80;99.90;;;;;;10543669;28;20204;-87
2023/04/15 14:10:03;;;;;;;16.53;10.93;;;11.60;99.90;;;;;;10542665;28;20205;-86
2023/04/15 14:15:25;;;;;;;15.00;9.63;;;11.60;99.90;;;;;;10527001;28;20196;-86
2023/04/15 14:20:46;;;;;;;16.23;10.80;;;11.60;99.90;;;;;;10530471;28;20227;-87
2023/04/15 14:26:08;;;;;;;14.63;8.90;;;11.50;99.90;;;;;;10529716;28;20452;-86
2023/04/15 14:31:29;;;;;;;22.47;11.47;;;11.50;99.90;;;;;;10525603;28;20233;-87
2023/04/15 14:36:54;;;;;;;13.83;9.70;;;11.40;99.90;;;;;;10529212;28;20260;-87
2023/04/15 14:42:15;;;;;;;14.03;9.63;;;11.40;99.90;;;;;;10517702;28;20226;-87
2023/04/15 14:47:37;;;;;;;19.17;12.90;;;11.40;99.90;;;;;;10505170;28;20197;-86
2023/04/15 14:52:59;;;;;;;17.03;11.40;;;11.50;99.90;;;;;;10496453;28;20250;-87
2023/04/15 14:58:21;;;;;;;17.83;11.97;;;11.50;99.90;;;;;;10517108;28;20200;-87
2023/04/15 15:03:42;;;;;;;21.27;12.83;;;11.40;99.90;;;;;;10492400;28;20234;-88
2023/04/15 15:09:04;;;;;;;18.47;12.37;;;11.40;99.90;;;;;;10504501;28;20210;-88
2023/04/15 15:14:25;;;;;;;16.37;10.57;;;11.40;99.90;;;;;;10489143;28;20202;-86
2023/04/15 15:19:46;;;;;;;19.60;11.00;;;11.40;99.90;;;;;;10495371;28;20223;-87
2023/04/15 15:25:08;;;;;;;16.40;10.50;;;11.30;99.90;;;;;;10509351;28;20267;-87
2023/04/15 15:30:29;;;;;;;21.20;11.33;;;11.40;99.90;;;;;;10494946;28;20411;-87
2023/04/15 15:35:51;;;;;;;17.63;9.93;;;11.30;99.90;;;;;;10522537;28;20241;-86
2023/04/15 15:41:12;;;;;;;13.50;9.57;;;11.30;99.90;;;;;;10522355;28;20225;-87
2023/04/15 15:46:33;;;;;;;17.03;11.90;;;11.10;99.90;;;;;;10522173;28;20272;-85
2023/04/15 15:51:55;;;;;;;13.40;9.63;;;11.10;99.90;;;;;;10531339;28;20209;-86
2023/04/15 15:57:16;;;;;;;16.57;11.23;;;11.00;99.90;;;;;;10510469;28;20201;-87
2023/04/15 16:02:37;;;;;;;12.83;8.77;;;11.00;99.90;;;;;;10510441;28;20226;-87
2023/04/15 16:08:01;;;;;;;18.63;10.90;;;10.90;99.90;;;;;;10541698;28;20200;-85
2023/04/15 16:13:23;;;;;;;15.60;10.77;;;10.80;99.90;;;;;;10537083;28;20196;-87
2023/04/15 16:18:44;;;;;;;13.80;8.87;;;10.80;99.90;;;;;;10507308;28;20205;-87
2023/04/15 16:24:06;;;;;;;16.77;9.17;;;10.80;99.90;;;;;;10479239;28;20230;-87
2023/04/15 16:29:27;;;;;;;14.83;8.37;;;10.80;99.90;;;;;;10498004;28;20197;-86
2023/04/15 16:34:48;;;;;;;12.43;8.80;;;10.80;99.90;;;;;;10551374;28;20275;-87
2023/04/15 16:40:10;;;;;;;11.00;8.07;;;10.80;99.90;;;;;;10519784;28;20252;-88
2023/04/15 16:45:32;;;;;;;11.57;8.07;;;10.70;99.90;;;;;;10501397;28;20513;-89
2023/04/15 16:50:53;;;;;;;12.80;7.87;;;10.70;99.90;;;;;;10509154;28;20423;-88
2023/04/15 16:56:15;;;;;;;13.60;8.03;;;10.60;99.90;;;;;;10499780;28;20227;-87
2023/04/15 17:01:36;;;;;;;9.80;6.90;;;10.60;99.90;;;;;;10531676;28;20285;-87
2023/04/15 17:06:58;;;;;;;11.57;7.63;;;10.50;99.90;;;;;;10535980;28;20242;-88
2023/04/15 17:12:19;;;;;;;7.50;6.13;;;10.50;99.90;;;;;;10531929;28;20380;-85
2023/04/15 17:17:41;;;;;;;7.43;5.07;;;10.40;99.90;;;;;;10503673;28;20259;-87
2023/04/15 17:23:03;;;;;;;12.67;7.23;;;10.40;99.90;;;;;;10493761;28;20279;-87
2023/04/15 17:28:24;;;;;;;12.33;7.30;;;10.30;99.90;;;;;;10480154;28;20208;-87
2023/04/15 17:33:46;;;;;;;10.07;5.63;;;10.20;99.90;;;;;;10529766;28;20388;-88
2023/04/15 17:39:07;;;;;;;10.43;6.90;;;10.20;99.90;;;;;;10516513;28;20243;-86
2023/04/15 17:44:28;;;;;;;9.83;6.40;;;10.10;99.90;;;;;;10494409;28;20212;-88
2023/04/15 17:49:50;;;;;;;12.70;8.20;;;10.10;99.90;;;;;;10506322;28;20257;-87
2023/04/15 17:55:11;;;;;;;9.73;6.50;;;10.10;99.90;;;;;;10512382;28;20232;-87
2023/04/15 18:00:32;;;;;;;14.00;6.80;;;10.00;99.90;;;;;;10542098;28;20277;-88
2023/04/15 18:05:55;;;;;;;12.20;6.30;;;10.00;99.90;;;;;;10505219;28;20356;-88
2023/04/15 18:11:16;;;;;;;8.57;6.37;;;10.00;99.90;;;;;;10491579;28;20191;-87
2023/04/15 18:16:38;;;;;;;13.50;8.37;;;9.80;99.90;;;;;;10505146;28;20336;-87
2023/04/15 18:22:00;;;;;;;12.70;7.13;;;9.80;99.90;;;;;;10494207;28;20223;-87
2023/04/15 18:27:21;;;;;;;12.07;6.83;;;9.80;99.90;;;;;;10492514;28;20206;-87
2023/04/15 18:32:44;;;;;;;9.57;5.73;;;9.70;99.90;;;;;;10503902;28;20275;-87
2023/04/15 18:38:06;;;;;;;10.80;6.40;;;9.70;99.90;;;;;;10514153;28;20460;-86
2023/04/15 18:43:27;;;;;;;15.70;7.60;;;9.70;99.90;;;;;;10515652;28;20228;-87
2023/04/15 18:48:49;;;;;;;11.13;7.43;;;9.70;99.90;;;;;;10538288;28;20198;-87
2023/04/15 18:54:10;;;;;;;11.93;7.97;;;9.70;99.90;;;;;;10516330;28;20255;-87
2023/04/15 18:59:32;;;;;;;11.77;7.40;;;9.70;99.90;;;;;;10536602;28;20237;-87
2023/04/15 19:04:54;;;;;;;8.53;5.77;;;9.70;99.90;;;;;;10491409;28;20204;-87
2023/04/15 19:10:15;;;;;;;9.57;6.20;;;9.70;99.90;;;;;;10546376;28;20188;-87
2023/04/15 19:15:37;;;;;;;9.07;5.70;;;9.60;99.90;;;;;;10531954;28;20286;-87
2023/04/15 19:20:58;;;;;;;8.57;5.77;;;9.60;99.90;;;;;;10495159;28;20248;-87
2023/04/15 19:26:20;;;;;;;9.60;4.90;;;9.60;99.90;;;;;;10501444;28;20201;-86
2023/04/15 19:31:41;;;;;;;8.43;4.93;;;9.60;99.90;;;;;;10509206;28;20196;-86
2023/04/15 19:37:02;;;;;;;11.17;6.60;;;9.50;99.90;;;;;;10499593;28;20238;-87
2023/04/15 19:42:24;;;;;;;8.40;5.53;;;9.50;99.90;;;;;;10498174;28;20286;-87
2023/04/15 19:47:45;;;;;;;16.87;8.23;;;9.50;99.90;;;;;;10511657;28;20256;-86
2023/04/15 19:53:07;;;;;;;7.43;5.70;;;9.50;99.90;;;;;;10516485;28;20203;-86
2023/04/15 19:58:28;;;;;;;9.57;6.00;;;9.50;99.90;;;;;;10528645;28;20204;-86
2023/04/15 20:03:52;;;;;;;7.20;5.07;;;9.40;99.90;;;;;;10547589;28;20226;-87
2023/04/15 20:09:14;;;;;;;5.60;3.90;;;9.40;99.90;;;;;;10493301;28;20229;-85
2023/04/15 20:14:35;;;;;;;6.73;5.20;;;9.40;99.90;;;;;;10493755;28;20368;-87
2023/04/15 20:19:57;;;;;;;7.03;5.07;;;9.40;99.90;;;;;;10515719;28;20276;-87
2023/04/15 20:25:18;;;;;;;5.13;4.30;;;9.30;99.90;;;;;;10545314;28;20204;-86
2023/04/15 20:30:39;;;;;;;6.80;4.47;;;9.20;99.90;;;;;;10552656;28;20204;-87
2023/04/15 20:36:01;;;;;;;4.67;3.67;;;9.20;99.90;;;;;;10535461;28;20229;-86
2023/04/15 20:41:22;;;;;;;6.33;5.07;;;9.20;99.90;;;;;;10530104;28;20253;-86
2023/04/15 20:46:44;;;;;;;6.10;5.27;;;9.30;99.90;;;;;;10556620;28;20371;-87
2023/04/15 20:52:06;;;;;;;7.97;4.90;;;9.30;99.90;;;;;;10535200;28;20194;-86
2023/04/15 20:57:29;;;;;;;7.77;5.30;;;9.20;99.90;;;;;;10502015;28;20298;-86
2023/04/15 21:02:50;;;;;;;6.73;5.07;;;9.20;99.90;;;;;;10509621;28;20218;-85
2023/04/15 21:08:11;;;;;;;7.00;5.43;;;9.20;99.90;;;;;;10507512;28;20220;-85
2023/04/15 21:13:33;;;;;;;5.40;4.87;;;9.10;99.90;;;;;;10515369;28;20226;-87
2023/04/15 21:18:55;;;;;;;6.73;5.13;;;9.10;99.90;;;;;;10563921;28;20277;-86
2023/04/15 21:24:16;;;;;;;6.20;5.27;;;9.10;99.90;;;;;;10543253;28;20260;-87
2023/04/15 21:29:39;;;;;;;7.03;5.13;;;9.10;99.90;;;;;;10541949;28;20541;-85
2023/04/15 21:35:00;;;;;;;7.53;4.60;;;9.00;99.90;;;;;;10532981;28;20223;-86
2023/04/15 21:40:21;;;;;;;4.87;4.43;;;9.00;99.90;;;;;;10544323;28;20214;-86
2023/04/15 21:45:43;;;;;;;6.60;4.63;;;9.00;99.90;;;;;;10533477;28;20246;-87
2023/04/15 21:51:04;;;;;;;6.67;5.00;;;8.90;99.90;;;;;;10560403;28;20189;-87
2023/04/15 21:56:27;;;;;;;7.00;4.50;;;9.00;99.90;;;;;;10524064;28;20202;-86
2023/04/15 22:01:49;;;;;;;6.20;4.87;;;9.00;99.90;;;;;;10532365;28;20222;-85
2023/04/15 22:07:11;;;;;;;7.87;5.10;;;9.00;99.90;;;;;;10503677;28;20196;-86
2023/04/15 22:12:33;;;;;;;5.77;4.87;;;8.90;99.90;;;;;;10521765;28;20202;-86
2023/04/15 22:17:54;;;;;;;6.10;5.10;;;8.90;99.90;;;;;;10535067;28;20198;-86
2023/04/15 22:23:19;;;;;;;5.43;4.77;;;8.90;99.90;;;;;;10533168;28;20213;-86
2023/04/15 22:28:40;;;;;;;5.63;4.87;;;8.80;99.90;;;;;;10478638;28;20228;-86
2023/04/15 22:34:01;;;;;;;6.60;3.93;;;8.80;99.90;;;;;;10549735;28;20203;-85
2023/04/15 22:39:23;;;;;;;4.17;3.30;;;8.70;99.90;;;;;;10502696;28;20240;-86
2023/04/15 22:44:44;;;;;;;4.10;3.50;;;8.70;99.90;;;;;;10452044;28;20250;-86
2023/04/15 22:50:06;;;;;;;6.10;3.60;;;8.60;99.90;;;;;;10482535;28;20428;-84
2023/04/15 22:55:27;;;;;;;3.70;3.30;;;8.60;99.90;;;;;;10508506;28;20205;-86
2023/04/15 23:00:49;;;;;;;4.70;3.97;;;8.60;99.90;;;;;;10492234;28;20206;-86
2023/04/15 23:06:10;;;;;;;4.53;3.43;;;8.60;99.90;;;;;;10473299;28;20483;-86
2023/04/15 23:11:33;;;;;;;4.83;3.60;;;8.60;99.90;;;;;;10479284;28;20202;-86
2023/04/15 23:16:56;;;;;;;3.97;3.57;;;8.70;99.90;;;;;;10493481;28;20214;-85
2023/04/15 23:22:17;;;;;;;4.50;3.67;;;8.70;99.90;;;;;;10507950;28;20225;-86
2023/04/15 23:27:40;;;;;;;4.73;4.17;;;8.60;99.90;;;;;;10482320;28;20386;-85
2023/04/15 23:33:01;;;;;;;6.57;3.80;;;8.60;99.90;;;;;;10500112;28;20202;-86
2023/04/15 23:38:22;;;;;;;4.60;3.80;;;8.70;99.90;;;;;;10479546;28;20230;-86
2023/04/15 23:43:44;;;;;;;9.80;7.20;;;8.70;99.90;;;;;;10499737;28;20255;-86
2023/04/15 23:49:05;;;;;;;10.20;5.03;;;8.70;99.90;;;;;;10499562;28;20234;-86
2023/04/15 23:54:27;;;;;;;8.07;4.97;;;8.60;99.90;;;;;;10509953;28;20245;-85
2023/04/15 23:59:48;;;;;;;8.37;4.73;;;8.80;99.90;;;;;;10497927;28;20194;-86
